createdAt,value
2022-12-19T00:01:38.548Z,8.90
2022-12-19T00:04:10.269Z,8.90
2022-12-19T00:06:43.907Z,8.90
2022-12-19T00:09:12.711Z,8.90
2022-12-19T00:11:40.747Z,8.90
2022-12-19T00:14:09.369Z,8.90
2022-12-19T00:16:36.417Z,8.90
2022-12-19T00:19:03.952Z,8.90
2022-12-19T00:21:34.755Z,8.90
2022-12-19T00:24:03.594Z,8.90
2022-12-19T00:26:36.907Z,8.90
2022-12-19T00:29:12.599Z,8.90
2022-12-19T00:31:41.414Z,8.90
2022-12-19T00:34:09.596Z,8.90
2022-12-19T00:36:36.606Z,8.90
2022-12-19T00:39:08.125Z,8.90
2022-12-19T00:41:39.423Z,8.90
2022-12-19T00:44:17.484Z,8.90
2022-12-19T00:46:52.463Z,8.90
2022-12-19T00:49:20.864Z,8.90
2022-12-19T00:51:47.827Z,8.90
2022-12-19T00:54:15.099Z,8.90
2022-12-19T00:56:42.242Z,8.90
2022-12-19T00:59:10.487Z,8.90
2022-12-19T01:01:41.059Z,8.90
2022-12-19T01:04:29.798Z,8.90
2022-12-19T01:07:02.464Z,8.90
2022-12-19T01:09:33.501Z,8.90
2022-12-19T01:12:19.044Z,8.90
2022-12-19T01:14:48.141Z,8.90
2022-12-19T01:17:15.365Z,8.90
2022-12-19T01:19:44.603Z,8.90
2022-12-19T01:22:13.564Z,8.90
2022-12-19T01:24:41.317Z,8.80
2022-12-19T01:27:08.917Z,8.80
2022-12-19T01:29:45.303Z,8.70
2022-12-19T01:32:20.976Z,8.70
2022-12-19T01:34:48.087Z,8.70
2022-12-19T01:37:18.051Z,8.70
2022-12-19T01:39:46.148Z,8.70
2022-12-19T01:42:23.212Z,8.70
2022-12-19T01:45:17.006Z,8.70
2022-12-19T01:47:54.944Z,8.70
2022-12-19T01:51:01.739Z,8.70
2022-12-19T01:53:48.732Z,8.70
2022-12-19T01:56:19.413Z,8.70
2022-12-19T01:58:48.340Z,8.70
2022-12-19T02:01:17.850Z,8.70
2022-12-19T02:03:45.936Z,8.70
2022-12-19T02:06:14.706Z,8.70
2022-12-19T02:08:44.483Z,8.70
2022-12-19T02:11:11.848Z,8.60
2022-12-19T02:13:39.900Z,8.60
2022-12-19T02:16:29.023Z,8.60
2022-12-19T02:19:21.179Z,8.60
2022-12-19T02:22:03.291Z,8.70
2022-12-19T02:25:08.111Z,8.70
2022-12-19T02:27:54.314Z,8.70
2022-12-19T02:30:53.629Z,8.70
2022-12-19T02:33:20.939Z,8.60
2022-12-19T02:36:25.431Z,8.60
2022-12-19T02:39:07.992Z,8.50
2022-12-19T02:41:43.801Z,8.50
2022-12-19T02:44:37.762Z,8.60
2022-12-19T02:47:07.561Z,8.60
2022-12-19T02:49:37.753Z,8.60
2022-12-19T02:52:30.922Z,8.60
2022-12-19T02:55:05.024Z,8.60
2022-12-19T02:57:46.042Z,8.60
2022-12-19T03:00:18.900Z,8.60
2022-12-19T03:03:00.922Z,8.60
2022-12-19T03:05:38.047Z,8.60
2022-12-19T03:08:14.329Z,8.60
2022-12-19T03:10:59.897Z,8.60
2022-12-19T03:13:42.480Z,8.60
2022-12-19T03:16:11.134Z,8.60
2022-12-19T03:18:39.468Z,8.60
2022-12-19T03:21:21.824Z,8.60
2022-12-19T03:23:52.608Z,8.60
2022-12-19T03:26:23.845Z,8.60
2022-12-19T03:28:56.513Z,8.60
2022-12-19T03:31:27.692Z,8.60
2022-12-19T03:34:03.130Z,8.60
2022-12-19T03:36:41.496Z,8.60
2022-12-19T03:39:11.135Z,8.60
2022-12-19T03:41:59.863Z,8.50
2022-12-19T03:44:29.819Z,8.50
2022-12-19T03:47:08.383Z,8.50
2022-12-19T03:49:36.074Z,8.50
2022-12-19T03:52:08.786Z,8.50
2022-12-19T03:54:40.694Z,8.60
2022-12-19T03:57:17.213Z,8.60
2022-12-19T03:59:56.671Z,8.60
2022-12-19T04:02:24.745Z,8.60
2022-12-19T04:04:58.164Z,8.60
2022-12-19T04:07:26.050Z,8.60
2022-12-19T04:09:56.013Z,8.60
2022-12-19T04:12:28.830Z,8.60
2022-12-19T04:14:55.877Z,8.60
2022-12-19T04:17:39.427Z,8.70
2022-12-19T04:20:11.690Z,8.60
2022-12-19T04:22:43.863Z,8.60
2022-12-19T04:25:15.615Z,8.60
2022-12-19T04:27:48.481Z,8.60
2022-12-19T04:30:17.846Z,8.60
2022-12-19T04:32:46.245Z,8.50
2022-12-19T04:35:13.701Z,8.50
2022-12-19T04:37:41.196Z,8.50
2022-12-19T04:40:10.058Z,8.50
2022-12-19T04:42:37.182Z,8.50
2022-12-19T04:45:05.623Z,8.50
2022-12-19T04:47:33.342Z,8.40
2022-12-19T04:50:00.324Z,8.40
2022-12-19T04:52:27.427Z,8.50
2022-12-19T04:54:54.408Z,8.50
2022-12-19T04:57:21.361Z,8.50
2022-12-19T04:59:48.317Z,8.40
2022-12-19T05:02:15.379Z,8.40
2022-12-19T05:04:42.413Z,8.40
2022-12-19T05:07:09.321Z,8.40
2022-12-19T05:09:39.067Z,8.40
2022-12-19T05:12:06.901Z,8.30
2022-12-19T05:14:33.873Z,8.30
2022-12-19T05:17:01.576Z,8.30
2022-12-19T05:19:29.233Z,8.30
2022-12-19T05:21:56.580Z,8.30
2022-12-19T05:24:23.701Z,8.30
2022-12-19T05:26:50.566Z,8.20
2022-12-19T05:29:17.931Z,8.20
2022-12-19T05:31:45.242Z,8.20
2022-12-19T05:34:12.291Z,8.20
2022-12-19T05:36:39.271Z,8.30
2022-12-19T05:39:06.346Z,8.30
2022-12-19T05:41:33.453Z,8.30
2022-12-19T05:44:00.525Z,8.20
2022-12-19T05:46:27.508Z,8.20
2022-12-19T05:48:56.115Z,8.20
2022-12-19T05:51:23.348Z,8.20
2022-12-19T05:53:50.305Z,8.20
2022-12-19T05:56:20.552Z,8.20
2022-12-19T05:58:48.025Z,8.10
2022-12-19T06:01:23.020Z,8.10
2022-12-19T06:03:50.889Z,8.10
2022-12-19T06:06:21.769Z,8.10
2022-12-19T06:08:52.394Z,8.10
2022-12-19T06:11:19.395Z,8.00
2022-12-19T06:13:46.370Z,8.00
2022-12-19T06:16:15.840Z,8.00
2022-12-19T06:18:45.319Z,8.00
2022-12-19T06:21:17.942Z,8.00
2022-12-19T06:23:45.616Z,8.00
2022-12-19T06:26:19.372Z,8.00
2022-12-19T06:28:47.795Z,8.00
2022-12-19T06:31:15.767Z,8.00
2022-12-19T06:33:42.975Z,8.00
2022-12-19T06:36:15.007Z,8.00
2022-12-19T06:38:42.172Z,8.00
2022-12-19T06:41:29.291Z,7.90
2022-12-19T06:44:00.491Z,7.90
2022-12-19T06:46:27.936Z,7.90
2022-12-19T06:48:54.935Z,7.90
2022-12-19T06:51:22.746Z,7.90
2022-12-19T06:53:50.636Z,7.90
2022-12-19T06:56:18.403Z,7.90
2022-12-19T06:58:45.747Z,7.80
2022-12-19T07:01:29.355Z,7.80
2022-12-19T07:03:56.919Z,7.80
2022-12-19T07:06:23.950Z,7.80
2022-12-19T07:08:51.012Z,7.80
2022-12-19T07:11:18.032Z,7.80
2022-12-19T07:13:44.964Z,7.80
2022-12-19T07:16:12.196Z,7.70
2022-12-19T07:18:40.711Z,7.70
2022-12-19T07:21:11.225Z,7.70
2022-12-19T07:23:39.361Z,7.70
2022-12-19T07:26:06.417Z,7.70
2022-12-19T07:28:34.812Z,7.70
2022-12-19T07:31:01.903Z,7.70
2022-12-19T07:33:28.879Z,7.70
2022-12-19T07:35:55.832Z,7.80
2022-12-19T07:38:22.802Z,7.70
2022-12-19T07:40:49.825Z,7.70
2022-12-19T07:43:16.856Z,7.70
2022-12-19T07:45:44.027Z,7.70
2022-12-19T07:48:11.201Z,7.70
2022-12-19T07:50:38.223Z,7.70
2022-12-19T07:53:05.365Z,7.70
2022-12-19T07:55:33.612Z,7.70
2022-12-19T07:58:00.581Z,7.60
2022-12-19T08:00:27.477Z,7.60
2022-12-19T08:02:54.558Z,7.60
2022-12-19T08:05:23.654Z,7.60
2022-12-19T08:07:53.540Z,7.60
2022-12-19T08:10:22.759Z,7.70
2022-12-19T08:12:49.888Z,7.60
2022-12-19T08:15:16.873Z,7.60
2022-12-19T08:17:43.917Z,7.60
2022-12-19T08:20:11.727Z,7.60
2022-12-19T08:22:38.713Z,7.70
2022-12-19T08:25:07.577Z,7.70
2022-12-19T08:27:35.037Z,7.80
2022-12-19T08:30:02.558Z,7.80
2022-12-19T08:32:29.748Z,7.80
2022-12-19T08:34:57.120Z,7.70
2022-12-19T08:37:24.184Z,7.70
2022-12-19T08:39:51.703Z,7.70
2022-12-19T08:42:18.732Z,7.70
2022-12-19T08:44:45.846Z,7.70
2022-12-19T08:47:12.810Z,7.80
2022-12-19T08:49:39.821Z,7.80
2022-12-19T08:52:06.940Z,7.80
2022-12-19T08:54:34.067Z,7.80
2022-12-19T08:57:01.154Z,7.80
2022-12-19T08:59:30.846Z,7.80
2022-12-19T09:02:02.536Z,7.80
2022-12-19T09:05:58.292Z,7.80
2022-12-19T09:07:17.370Z,7.80
2022-12-19T09:09:45.249Z,7.80
2022-12-19T09:12:16.815Z,7.90
2022-12-19T09:14:46.915Z,7.80
2022-12-19T09:17:14.158Z,7.80
2022-12-19T09:19:45.164Z,7.80
2022-12-19T09:22:15.705Z,7.80
2022-12-19T09:24:42.715Z,7.80
2022-12-19T09:27:09.732Z,7.80
2022-12-19T09:29:36.670Z,7.80
2022-12-19T09:32:03.683Z,7.80
2022-12-19T09:34:37.644Z,7.80
2022-12-19T09:37:16.075Z,7.80
2022-12-19T09:39:45.534Z,7.80
2022-12-19T09:42:19.827Z,7.80
2022-12-19T09:45:09.625Z,7.90
2022-12-19T09:47:42.411Z,7.80
2022-12-19T09:50:41.966Z,7.80
2022-12-19T09:53:22.632Z,7.80
2022-12-19T09:55:52.083Z,7.80
2022-12-19T09:58:35.965Z,7.80
2022-12-19T10:01:08.299Z,7.80
2022-12-19T10:03:40.334Z,7.90
2022-12-19T10:07:11.127Z,7.90
2022-12-19T10:11:26.564Z,7.90
2022-12-19T10:12:45.911Z,7.90
2022-12-19T10:15:10.212Z,7.80
2022-12-19T10:17:46.425Z,7.80
2022-12-19T10:20:26.974Z,7.80
2022-12-19T10:23:12.021Z,7.80
2022-12-19T10:26:12.352Z,7.80
2022-12-19T10:29:02.321Z,7.80
2022-12-19T10:31:45.172Z,7.80
2022-12-19T10:34:17.072Z,7.80
2022-12-19T10:39:46.175Z,7.90
2022-12-19T10:42:26.248Z,7.90
2022-12-19T10:44:56.734Z,7.90
2022-12-19T10:47:23.812Z,7.90
2022-12-19T10:49:50.778Z,7.90
2022-12-19T10:52:49.060Z,8.00
2022-12-19T10:55:38.994Z,8.00
2022-12-19T10:58:19.162Z,8.00
2022-12-19T11:00:58.122Z,8.10
2022-12-19T11:03:25.329Z,8.10
2022-12-19T11:05:58.407Z,8.20
2022-12-19T11:08:31.482Z,8.20
2022-12-19T11:11:57.680Z,8.20
2022-12-19T11:18:43.388Z,8.20
2022-12-19T11:20:09.268Z,8.30
2022-12-19T11:29:15.285Z,8.30
2022-12-19T11:29:34.557Z,8.40
2022-12-19T11:30:35.711Z,8.40
2022-12-19T11:30:48.666Z,8.40
2022-12-19T11:34:02.307Z,8.40
2022-12-19T11:36:43.542Z,8.40
2022-12-19T11:39:25.541Z,8.50
2022-12-19T11:42:18.949Z,8.50
2022-12-19T11:44:51.404Z,8.50
2022-12-19T11:47:44.217Z,8.60
2022-12-19T11:50:35.039Z,8.60
2022-12-19T11:53:11.625Z,8.60
2022-12-19T11:56:16.177Z,8.70
2022-12-19T11:58:50.433Z,8.70
2022-12-19T12:01:42.199Z,8.80
2022-12-19T12:04:27.581Z,8.70
2022-12-19T12:06:57.586Z,8.70
2022-12-19T12:14:22.641Z,8.80
2022-12-19T12:20:33.105Z,8.80
2022-12-19T12:31:02.481Z,8.90
2022-12-19T12:31:07.829Z,8.80
2022-12-19T12:31:14.029Z,8.80
2022-12-19T12:31:43.270Z,8.90
2022-12-19T12:31:50.264Z,8.80
2022-12-19T12:35:38.052Z,8.90
2022-12-19T12:35:38.052Z,8.90
2022-12-19T12:40:40.794Z,8.90
2022-12-19T12:43:45.567Z,9.00
2022-12-19T12:46:31.501Z,9.00
2022-12-19T12:49:05.009Z,9.10
2022-12-19T12:51:33.924Z,9.10
2022-12-19T12:54:10.146Z,9.10
2022-12-19T12:56:37.780Z,9.10
2022-12-19T12:59:20.079Z,9.10
2022-12-19T13:01:53.334Z,9.20
2022-12-19T13:04:27.558Z,9.10
2022-12-19T13:06:54.484Z,9.20
2022-12-19T13:09:27.334Z,9.20
2022-12-19T13:12:21.047Z,9.20
2022-12-19T13:14:52.338Z,9.20
2022-12-19T13:17:45.169Z,9.20
2022-12-19T13:20:13.179Z,9.20
2022-12-19T13:22:45.785Z,9.20
2022-12-19T13:25:33.904Z,9.20
2022-12-19T13:28:03.592Z,9.20
2022-12-19T13:30:46.508Z,9.20
2022-12-19T13:33:19.693Z,9.20
2022-12-19T13:37:05.256Z,9.20
2022-12-19T13:39:58.210Z,9.20
2022-12-19T13:42:01.062Z,9.20
2022-12-19T13:44:29.004Z,9.20
2022-12-19T13:46:56.508Z,9.20
2022-12-19T13:49:31.820Z,9.20
2022-12-19T13:52:03.856Z,9.20
2022-12-19T13:54:36.376Z,9.20
2022-12-19T13:57:07.601Z,9.20
2022-12-19T13:59:40.132Z,9.20
2022-12-19T14:02:45.287Z,9.30
2022-12-19T14:06:14.928Z,9.20
2022-12-19T14:08:25.301Z,9.20
2022-12-19T14:11:42.951Z,9.20
2022-12-19T14:14:17.856Z,9.20
2022-12-19T14:16:49.094Z,9.20
2022-12-19T14:19:23.240Z,9.20
2022-12-19T14:22:06.386Z,9.20
2022-12-19T14:24:38.113Z,9.20
2022-12-19T14:28:20.122Z,9.20
2022-12-19T14:30:27.711Z,9.20
2022-12-19T14:33:46.231Z,9.20
2022-12-19T14:36:09.031Z,9.20
2022-12-19T14:39:23.221Z,9.20
2022-12-19T14:41:46.360Z,9.20
2022-12-19T14:52:52.389Z,9.20
2022-12-19T14:53:08.625Z,9.20
2022-12-19T14:54:27.512Z,9.20
2022-12-19T14:54:39.878Z,9.20
2022-12-19T14:56:33.585Z,9.10
2022-12-19T14:59:35.350Z,9.10
2022-12-19T15:02:08.152Z,9.10
2022-12-19T15:04:50.295Z,9.20
2022-12-19T15:07:22.675Z,9.20
2022-12-19T15:11:07.500Z,9.20
2022-12-19T15:14:53.359Z,9.20
2022-12-19T15:15:59.061Z,9.20
2022-12-19T15:18:42.508Z,9.10
2022-12-19T15:21:14.800Z,9.10
2022-12-19T15:23:44.810Z,9.10
2022-12-19T15:26:15.212Z,9.10
2022-12-19T15:28:50.682Z,9.20
2022-12-19T15:31:42.070Z,9.10
2022-12-19T15:34:36.328Z,9.10
2022-12-19T15:37:12.435Z,9.10
2022-12-19T15:39:41.103Z,9.10
2022-12-19T15:42:21.442Z,9.10
2022-12-19T15:44:49.860Z,9.10
2022-12-19T15:47:22.045Z,9.10
2022-12-19T15:49:49.140Z,9.10
2022-12-19T15:52:19.462Z,9.20
2022-12-19T15:54:49.776Z,9.10
2022-12-19T15:57:37.752Z,9.10
2022-12-19T16:00:17.125Z,9.10
2022-12-19T16:05:31.675Z,9.20
2022-12-19T16:07:58.932Z,9.20
2022-12-19T16:10:27.082Z,9.20
2022-12-19T16:12:58.225Z,9.10
2022-12-19T16:15:34.178Z,9.10
2022-12-19T16:18:03.423Z,9.10
2022-12-19T16:20:36.466Z,9.10
2022-12-19T16:23:03.585Z,9.10
2022-12-19T16:25:46.240Z,9.10
2022-12-19T16:28:33.978Z,9.10
2022-12-19T16:31:12.913Z,9.10
2022-12-19T16:33:39.947Z,9.00
2022-12-19T16:36:08.624Z,9.10
2022-12-19T16:38:36.198Z,9.10
2022-12-19T16:41:03.726Z,9.00
2022-12-19T16:43:38.793Z,9.10
2022-12-19T16:46:08.053Z,9.10
2022-12-19T16:48:38.299Z,9.00
2022-12-19T16:51:05.397Z,9.00
2022-12-19T16:53:32.746Z,9.10
2022-12-19T16:56:00.738Z,9.10
2022-12-19T16:58:29.423Z,9.10
2022-12-19T17:00:57.242Z,9.10
2022-12-19T17:03:41.652Z,9.10
2022-12-19T17:06:13.581Z,9.10
2022-12-19T17:08:40.908Z,9.10
2022-12-19T17:11:21.972Z,9.10
2022-12-19T17:13:52.365Z,9.10
2022-12-19T17:16:19.549Z,9.10
2022-12-19T17:18:47.354Z,9.10
2022-12-19T17:21:22.896Z,9.10
2022-12-19T17:23:50.708Z,9.00
2022-12-19T17:26:18.459Z,9.00
2022-12-19T17:28:48.658Z,9.00
2022-12-19T17:31:28.387Z,9.00
2022-12-19T17:33:57.743Z,9.00
2022-12-19T17:36:36.610Z,9.00
2022-12-19T17:39:22.357Z,9.00
2022-12-19T17:41:50.714Z,9.10
2022-12-19T17:44:18.181Z,9.00
2022-12-19T17:46:47.406Z,9.00
2022-12-19T17:49:23.289Z,9.00
2022-12-19T17:51:52.237Z,9.00
2022-12-19T17:54:21.187Z,9.00
2022-12-19T17:56:48.302Z,9.00
2022-12-19T17:59:15.349Z,9.00
2022-12-19T18:01:43.334Z,9.00
2022-12-19T18:04:14.708Z,9.00
2022-12-19T18:06:42.429Z,9.00
2022-12-19T18:09:18.441Z,9.00
2022-12-19T18:11:45.905Z,9.00
2022-12-19T18:14:12.888Z,9.00
2022-12-19T18:16:40.025Z,9.10
2022-12-19T18:19:11.918Z,9.10
2022-12-19T18:21:38.986Z,9.00
2022-12-19T18:24:11.046Z,9.10
2022-12-19T18:26:38.051Z,9.10
2022-12-19T18:29:05.175Z,9.10
2022-12-19T18:31:32.222Z,9.10
2022-12-19T18:34:07.610Z,9.10
2022-12-19T18:36:40.437Z,9.10
2022-12-19T18:39:22.175Z,9.10
2022-12-19T18:41:50.183Z,9.10
2022-12-19T18:44:17.824Z,9.10
2022-12-19T18:46:45.417Z,9.10
2022-12-19T18:49:14.662Z,9.10
2022-12-19T18:51:42.417Z,9.10
2022-12-19T18:54:14.512Z,9.10
2022-12-19T18:56:41.649Z,9.10
2022-12-19T18:59:09.110Z,9.10
2022-12-19T19:01:40.675Z,9.10
2022-12-19T19:04:08.950Z,9.10
2022-12-19T19:06:38.311Z,9.00
2022-12-19T19:09:14.723Z,9.10
2022-12-19T19:12:06.120Z,9.00
2022-12-19T19:14:33.148Z,9.10
2022-12-19T19:17:00.318Z,9.00
2022-12-19T19:19:27.330Z,9.00
2022-12-19T19:21:54.469Z,9.00
2022-12-19T19:24:23.275Z,9.00
2022-12-19T19:26:50.266Z,9.10
2022-12-19T19:29:19.731Z,9.00
2022-12-19T19:31:50.042Z,9.10
2022-12-19T19:34:27.668Z,9.00
2022-12-19T19:36:57.299Z,9.00
2022-12-19T19:39:24.774Z,9.00
2022-12-19T19:41:51.831Z,9.00
2022-12-19T19:44:18.987Z,9.00
2022-12-19T19:46:46.267Z,9.00
2022-12-19T19:49:13.325Z,9.00
2022-12-19T19:51:40.470Z,9.00
2022-12-19T19:54:07.493Z,8.90
2022-12-19T19:56:34.589Z,8.90
2022-12-19T19:59:01.640Z,8.90
2022-12-19T20:01:29.026Z,8.90
2022-12-19T20:03:56.166Z,8.90
2022-12-19T20:06:23.869Z,8.90
2022-12-19T20:08:51.131Z,8.80
2022-12-19T20:11:18.580Z,8.80
2022-12-19T20:13:45.547Z,8.80
2022-12-19T20:16:18.436Z,8.80
2022-12-19T20:18:51.654Z,8.80
2022-12-19T20:21:20.879Z,8.80
2022-12-19T20:23:48.105Z,8.80
2022-12-19T20:26:16.602Z,8.80
2022-12-19T20:28:48.866Z,8.80
2022-12-19T20:31:19.477Z,8.70
2022-12-19T20:33:48.575Z,8.70
2022-12-19T20:36:16.717Z,8.70
2022-12-19T20:38:44.393Z,8.70
2022-12-19T20:41:13.242Z,8.70
2022-12-19T20:43:41.373Z,8.80
2022-12-19T20:46:15.025Z,8.70
2022-12-19T20:48:42.527Z,8.70
2022-12-19T20:51:10.170Z,8.70
2022-12-19T20:53:39.713Z,8.70
2022-12-19T20:56:07.969Z,8.70
2022-12-19T20:58:36.779Z,8.70
2022-12-19T21:01:10.702Z,8.70
2022-12-19T21:03:39.324Z,8.80
2022-12-19T21:06:08.294Z,8.80
2022-12-19T21:08:36.932Z,8.80
2022-12-19T21:11:05.329Z,8.70
2022-12-19T21:13:34.487Z,8.70
2022-12-19T21:16:07.111Z,8.70
2022-12-19T21:18:35.811Z,8.70
2022-12-19T21:21:04.274Z,8.70
2022-12-19T21:23:31.558Z,8.70
2022-12-19T21:26:00.632Z,8.70
2022-12-19T21:28:28.195Z,8.70
2022-12-19T21:30:57.325Z,8.80
2022-12-19T21:33:24.489Z,8.80
2022-12-19T21:35:51.550Z,8.80
2022-12-19T21:38:18.659Z,8.80
2022-12-19T21:40:45.675Z,8.80
2022-12-19T21:43:12.768Z,8.80
2022-12-19T21:45:39.784Z,8.80
2022-12-19T21:48:07.052Z,8.80
2022-12-19T21:50:34.297Z,8.80
2022-12-19T21:53:01.362Z,8.90
2022-12-19T21:55:28.366Z,8.90
2022-12-19T21:57:55.538Z,8.90
2022-12-19T22:00:22.736Z,8.90
2022-12-19T22:03:12.647Z,8.90
2022-12-19T22:05:36.795Z,8.90
2022-12-19T22:08:04.059Z,8.90
2022-12-19T22:10:31.254Z,8.90
2022-12-19T22:12:58.291Z,8.90
2022-12-19T22:15:25.242Z,8.90
2022-12-19T22:17:52.184Z,8.90
2022-12-19T22:20:19.235Z,8.90
2022-12-19T22:22:46.245Z,8.90
2022-12-19T22:25:13.299Z,8.90
2022-12-19T22:27:40.289Z,8.90
2022-12-19T22:30:11.172Z,8.90
2022-12-19T22:32:38.495Z,8.90
2022-12-19T22:35:06.110Z,8.90
2022-12-19T22:37:33.293Z,8.90
2022-12-19T22:40:00.645Z,8.90
2022-12-19T22:42:28.087Z,8.90
2022-12-19T22:44:55.061Z,8.90
2022-12-19T22:47:22.121Z,8.90
2022-12-19T22:49:52.028Z,8.90
2022-12-19T22:52:19.187Z,8.90
2022-12-19T22:54:46.202Z,8.90
2022-12-19T22:57:13.236Z,8.90
2022-12-19T22:59:40.438Z,8.90
2022-12-19T23:02:07.743Z,8.90
2022-12-19T23:04:36.096Z,8.90
2022-12-19T23:07:03.139Z,8.90
2022-12-19T23:09:30.288Z,8.90
2022-12-19T23:11:57.287Z,8.90
2022-12-19T23:14:24.296Z,8.90
2022-12-19T23:16:51.486Z,8.90
2022-12-19T23:19:19.142Z,8.90
2022-12-19T23:21:46.232Z,8.90
2022-12-19T23:24:13.934Z,8.90
2022-12-19T23:26:41.606Z,8.90
2022-12-19T23:29:11.365Z,8.90
2022-12-19T23:31:46.289Z,8.90
2022-12-19T23:34:14.859Z,8.90
2022-12-19T23:39:28.947Z,8.90
2022-12-19T23:41:56.192Z,8.90
2022-12-19T23:44:23.369Z,8.90
2022-12-19T23:46:50.355Z,8.90
2022-12-19T23:49:17.575Z,8.90
2022-12-19T23:51:44.651Z,8.90
2022-12-19T23:54:11.681Z,8.90
2022-12-19T23:56:38.710Z,8.80
2022-12-19T23:59:05.987Z,8.80
